createdAt,value
2019-04-16T00:02:53.479Z,11.39
2019-04-16T00:06:12.556Z,11.37
2019-04-16T00:09:30.015Z,11.31
2019-04-16T00:12:48.983Z,11.25
2019-04-16T00:15:53.292Z,11.22
2019-04-16T00:19:01.088Z,11.13
2019-04-16T00:22:24.710Z,11.08
2019-04-16T00:25:28.561Z,11.02
2019-04-16T00:28:32.415Z,10.99
2019-04-16T00:31:37.668Z,10.95
2019-04-16T00:34:44.572Z,10.91
2019-04-16T00:37:51.472Z,10.85
2019-04-16T00:40:53.869Z,10.84
2019-04-16T00:43:57.802Z,10.82
2019-04-16T00:47:01.695Z,10.78
2019-04-16T00:50:06.508Z,10.84
2019-04-16T00:53:10.446Z,10.78
2019-04-16T00:56:16.094Z,10.76
2019-04-16T00:59:21.390Z,10.72
2019-04-16T01:02:26.309Z,10.68
2019-04-16T01:05:35.053Z,10.72
2019-04-16T01:08:36.004Z,10.69
2019-04-16T01:11:40.592Z,10.60
2019-04-16T01:14:44.414Z,10.51
2019-04-16T01:17:48.322Z,10.51
2019-04-16T01:20:53.012Z,10.54
2019-04-16T01:24:00.348Z,10.53
2019-04-16T01:27:04.747Z,10.51
2019-04-16T01:30:10.227Z,10.43
2019-04-16T01:33:20.913Z,10.41
2019-04-16T01:36:43.434Z,10.40
2019-04-16T01:39:49.896Z,10.46
2019-04-16T01:42:54.674Z,10.43
2019-04-16T01:46:01.473Z,10.37
2019-04-16T01:49:09.725Z,10.29
2019-04-16T01:52:10.995Z,10.28
2019-04-16T01:55:15.232Z,10.32
2019-04-16T01:58:19.157Z,10.27
2019-04-16T02:01:23.176Z,10.23
2019-04-16T02:04:27.058Z,10.21
2019-04-16T02:07:31.423Z,10.20
2019-04-16T02:10:38.475Z,10.18
2019-04-16T02:13:45.798Z,10.18
2019-04-16T02:16:47.437Z,10.28
2019-04-16T02:19:51.346Z,10.29
2019-04-16T02:22:55.429Z,10.43
2019-04-16T02:25:59.442Z,10.23
2019-04-16T02:29:03.482Z,10.21
2019-04-16T02:32:07.566Z,10.13
2019-04-16T02:35:11.983Z,10.08
2019-04-16T02:38:16.411Z,10.11
2019-04-16T02:41:23.398Z,10.05
2019-04-16T02:44:26.243Z,10.13
2019-04-16T02:47:30.085Z,10.07
2019-04-16T02:50:41.932Z,10.05
2019-04-16T02:54:01.693Z,9.95
2019-04-16T02:57:28.012Z,10.02
2019-04-16T03:00:42.463Z,9.98
2019-04-16T03:04:00.843Z,9.89
2019-04-16T03:07:04.998Z,9.82
2019-04-16T03:10:12.259Z,9.87
2019-04-16T03:13:15.121Z,9.80
2019-04-16T03:16:26.938Z,9.78
2019-04-16T03:19:34.256Z,9.82
2019-04-16T03:22:38.200Z,9.75
2019-04-16T03:25:44.406Z,9.67
2019-04-16T03:28:48.481Z,9.67
2019-04-16T03:31:57.430Z,9.71
2019-04-16T03:34:58.318Z,9.60
2019-04-16T03:38:05.395Z,9.64
2019-04-16T03:41:08.342Z,9.61
2019-04-16T03:44:13.148Z,9.53
2019-04-16T03:47:19.159Z,9.53
2019-04-16T03:50:23.731Z,9.46
2019-04-16T03:53:27.970Z,9.51
2019-04-16T03:56:32.437Z,9.45
2019-04-16T03:59:36.350Z,9.50
2019-04-16T04:02:40.208Z,9.44
2019-04-16T04:05:46.973Z,9.44
2019-04-16T04:08:53.190Z,9.43
2019-04-16T04:11:57.218Z,9.42
2019-04-16T04:15:01.007Z,9.38
2019-04-16T04:18:07.858Z,9.38
2019-04-16T04:21:11.293Z,9.34
2019-04-16T04:24:15.032Z,9.33
2019-04-16T04:27:19.521Z,9.38
2019-04-16T04:30:25.745Z,9.40
2019-04-16T04:33:42.565Z,9.33
2019-04-16T04:36:45.540Z,9.30
2019-04-16T04:39:49.543Z,9.37
2019-04-16T04:42:53.392Z,9.35
2019-04-16T04:45:57.869Z,9.41
2019-04-16T04:49:01.748Z,9.29
2019-04-16T04:52:05.725Z,9.26
2019-04-16T04:55:09.722Z,9.28
2019-04-16T04:58:13.551Z,9.31
2019-04-16T05:01:17.518Z,9.31
2019-04-16T05:04:33.205Z,9.37
2019-04-16T05:07:37.345Z,9.40
2019-04-16T05:10:43.239Z,9.34
2019-04-16T05:13:47.524Z,9.35
2019-04-16T05:16:52.101Z,9.35
2019-04-16T05:19:55.993Z,9.35
2019-04-16T05:23:00.015Z,9.40
2019-04-16T05:26:04.710Z,9.40
2019-04-16T05:29:16.305Z,9.41
2019-04-16T05:32:18.349Z,9.46
2019-04-16T05:35:22.201Z,9.49
2019-04-16T05:38:26.218Z,9.54
2019-04-16T05:41:30.187Z,9.63
2019-04-16T05:44:34.364Z,9.74
2019-04-16T05:47:38.314Z,9.80
2019-04-16T05:50:42.917Z,9.91
2019-04-16T05:53:50.939Z,9.99
2019-04-16T05:56:56.710Z,9.99
2019-04-16T06:00:03.283Z,10.11
2019-04-16T06:03:06.230Z,10.10
2019-04-16T06:06:10.167Z,10.16
2019-04-16T06:09:14.029Z,10.28
2019-04-16T06:12:18.605Z,10.28
2019-04-16T06:15:35.925Z,10.35
2019-04-16T06:18:49.770Z,10.46
2019-04-16T06:22:21.753Z,10.58
2019-04-16T06:25:41.095Z,10.58
2019-04-16T06:28:55.098Z,10.55
2019-04-16T06:32:18.494Z,10.67
2019-04-16T06:35:52.972Z,10.69
2019-04-16T06:39:04.786Z,10.79
2019-04-16T06:42:13.390Z,10.93
2019-04-16T06:45:36.542Z,11.00
2019-04-16T06:48:45.987Z,11.00
2019-04-16T06:52:08.174Z,11.13
2019-04-16T06:55:37.319Z,11.16
2019-04-16T06:58:51.280Z,11.27
2019-04-16T07:02:11.239Z,11.22
2019-04-16T07:05:33.011Z,11.29
2019-04-16T07:08:50.902Z,11.35
2019-04-16T07:11:58.416Z,11.39
2019-04-16T07:15:02.918Z,11.52
2019-04-16T07:18:07.127Z,11.65
2019-04-16T07:21:11.447Z,11.55
2019-04-16T07:24:15.789Z,11.70
2019-04-16T07:27:21.220Z,11.88
2019-04-16T07:30:38.416Z,11.98
2019-04-16T07:34:03.457Z,12.21
2019-04-16T07:37:12.529Z,12.29
2019-04-16T07:40:34.881Z,12.47
2019-04-16T07:43:57.006Z,12.82
2019-04-16T07:47:26.225Z,12.90
2019-04-16T07:50:53.029Z,12.77
2019-04-16T07:54:06.496Z,12.73
2019-04-16T07:57:10.331Z,13.00
2019-04-16T08:00:14.850Z,13.03
2019-04-16T08:03:18.678Z,12.89
2019-04-16T08:06:22.504Z,13.00
2019-04-16T08:09:29.915Z,13.22
2019-04-16T08:12:32.824Z,13.30
2019-04-16T08:15:37.142Z,13.29
2019-04-16T08:18:51.045Z,13.37
2019-04-16T08:21:55.417Z,13.73
2019-04-16T08:25:03.807Z,13.88
2019-04-16T08:28:07.781Z,13.87
2019-04-16T08:31:17.992Z,14.16
2019-04-16T08:34:21.869Z,14.17
2019-04-16T08:37:26.032Z,14.14
2019-04-16T08:40:30.007Z,14.14
2019-04-16T08:43:33.921Z,14.23
2019-04-16T08:46:40.130Z,14.27
2019-04-16T08:49:44.252Z,14.31
2019-04-16T08:52:48.094Z,14.35
2019-04-16T08:55:52.006Z,14.38
2019-04-16T08:59:00.249Z,14.54
2019-04-16T09:02:01.899Z,14.73
2019-04-16T09:05:11.061Z,14.78
2019-04-16T09:08:27.526Z,15.02
2019-04-16T09:11:35.110Z,15.12
2019-04-16T09:14:47.279Z,15.21
2019-04-16T09:17:58.817Z,15.43
2019-04-16T09:21:02.874Z,15.47
2019-04-16T09:24:44.596Z,15.61
2019-04-16T09:27:53.190Z,16.07
2019-04-16T09:31:27.924Z,16.21
2019-04-16T09:35:08.887Z,16.50
2019-04-16T09:38:22.936Z,16.43
2019-04-16T09:41:39.385Z,16.66
2019-04-16T09:44:43.352Z,16.66
2019-04-16T09:47:47.296Z,16.70
2019-04-16T09:50:51.280Z,16.70
2019-04-16T09:53:55.418Z,16.82
2019-04-16T09:56:59.990Z,16.92
2019-04-16T10:00:08.396Z,17.02
2019-04-16T10:03:28.262Z,17.08
2019-04-16T10:06:32.295Z,17.04
2019-04-16T10:09:36.279Z,17.00
2019-04-16T10:12:40.747Z,17.23
2019-04-16T10:15:44.755Z,17.14
2019-04-16T10:18:48.772Z,17.55
2019-04-16T10:21:54.239Z,17.55
2019-04-16T10:25:06.521Z,17.58
2019-04-16T10:28:17.338Z,17.66
2019-04-16T10:31:22.056Z,17.31
2019-04-16T10:34:26.919Z,17.91
2019-04-16T10:37:30.732Z,17.91
2019-04-16T10:40:40.212Z,17.88
2019-04-16T10:44:18.381Z,17.74
2019-04-16T10:47:50.377Z,17.89
2019-04-16T10:51:15.216Z,17.69
2019-04-16T10:54:23.930Z,17.99
2019-04-16T10:57:46.814Z,17.73
2019-04-16T11:01:08.681Z,18.00
2019-04-16T11:04:44.026Z,17.70
2019-04-16T11:07:49.496Z,17.55
2019-04-16T11:10:54.204Z,17.15
2019-04-16T11:14:00.370Z,17.42
2019-04-16T11:17:04.280Z,17.94
2019-04-16T11:20:08.491Z,18.22
2019-04-16T11:23:12.405Z,18.20
2019-04-16T11:26:16.595Z,18.03
2019-04-16T11:29:20.712Z,18.14
2019-04-16T11:32:27.736Z,17.94
2019-04-16T11:35:32.009Z,18.38
2019-04-16T11:38:36.088Z,18.49
2019-04-16T11:41:40.364Z,18.48
2019-04-16T11:44:44.355Z,18.27
2019-04-16T11:47:48.645Z,18.39
2019-04-16T11:50:53.238Z,18.18
2019-04-16T11:53:58.033Z,18.20
2019-04-16T11:57:02.449Z,18.56
2019-04-16T12:00:09.726Z,18.89
2019-04-16T12:03:41.811Z,19.08
2019-04-16T12:07:06.012Z,19.46
2019-04-16T12:10:24.323Z,19.70
2019-04-16T12:13:34.414Z,19.50
2019-04-16T12:17:04.932Z,19.58
2019-04-16T12:20:21.737Z,19.36
2019-04-16T12:23:41.180Z,19.10
2019-04-16T12:27:09.827Z,19.02
2019-04-16T12:30:45.364Z,19.45
2019-04-16T12:34:13.925Z,19.46
2019-04-16T12:37:43.616Z,19.19
2019-04-16T12:41:00.014Z,19.20
2019-04-16T12:44:24.486Z,19.83
2019-04-16T12:47:38.494Z,19.83
2019-04-16T12:50:58.052Z,20.05
2019-04-16T12:54:12.712Z,20.15
2019-04-16T12:57:38.819Z,20.31
2019-04-16T13:01:03.083Z,20.05
2019-04-16T13:04:25.655Z,19.38
2019-04-16T13:07:49.002Z,19.80
2019-04-16T13:11:11.880Z,20.09
2019-04-16T13:14:33.756Z,20.28
2019-04-16T13:17:56.335Z,20.44
2019-04-16T13:21:18.862Z,20.27
2019-04-16T13:24:27.882Z,19.98
2019-04-16T13:27:34.249Z,20.01
2019-04-16T13:30:38.251Z,19.71
2019-04-16T13:33:43.584Z,19.67
2019-04-16T13:36:51.517Z,19.55
2019-04-16T13:40:08.990Z,19.55
2019-04-16T13:43:15.817Z,19.52
2019-04-16T13:46:19.807Z,19.29
2019-04-16T13:49:35.274Z,19.19
2019-04-16T13:52:39.431Z,19.13
2019-04-16T13:55:55.910Z,19.17
2019-04-16T13:59:17.991Z,19.11
2019-04-16T14:02:41.397Z,19.12
2019-04-16T14:05:45.291Z,18.79
2019-04-16T14:08:49.423Z,18.97
2019-04-16T14:11:53.399Z,19.08
2019-04-16T14:14:57.380Z,19.29
2019-04-16T14:18:01.395Z,19.34
2019-04-16T14:21:05.447Z,19.64
2019-04-16T14:24:12.437Z,19.95
2019-04-16T14:27:16.665Z,19.64
2019-04-16T14:30:23.857Z,19.78
2019-04-16T14:33:51.566Z,19.87
2019-04-16T14:36:57.679Z,19.65
2019-04-16T14:40:23.713Z,19.72
2019-04-16T14:43:33.381Z,20.10
2019-04-16T14:46:37.634Z,20.13
2019-04-16T14:49:41.583Z,20.31
2019-04-16T14:52:45.600Z,20.66
2019-04-16T14:56:00.652Z,20.85
2019-04-16T14:59:10.011Z,20.97
2019-04-16T15:02:36.694Z,21.43
2019-04-16T15:06:02.547Z,21.17
2019-04-16T15:09:31.037Z,20.54
2019-04-16T15:12:45.327Z,20.69
2019-04-16T15:16:06.102Z,20.74
2019-04-16T15:19:18.432Z,20.62
2019-04-16T15:22:30.821Z,20.47
2019-04-16T15:25:52.820Z,19.98
2019-04-16T15:29:06.015Z,20.09
2019-04-16T15:32:20.790Z,19.81
2019-04-16T15:35:31.009Z,19.62
2019-04-16T15:38:42.809Z,19.48
2019-04-16T15:42:15.945Z,19.39
2019-04-16T15:45:21.241Z,19.51
2019-04-16T15:48:51.211Z,19.38
2019-04-16T15:52:26.403Z,19.44
2019-04-16T15:55:35.696Z,19.35
2019-04-16T15:58:52.252Z,19.40
2019-04-16T16:02:13.863Z,19.23
2019-04-16T16:05:31.360Z,19.19
2019-04-16T16:08:39.582Z,19.05
2019-04-16T16:11:57.575Z,19.12
2019-04-16T16:15:01.480Z,18.94
2019-04-16T16:18:05.296Z,18.98
2019-04-16T16:21:09.209Z,18.94
2019-04-16T16:24:13.096Z,19.08
2019-04-16T16:27:17.130Z,18.96
2019-04-16T16:30:20.948Z,18.90
2019-04-16T16:33:24.751Z,18.94
2019-04-16T16:36:29.211Z,18.88
2019-04-16T16:39:34.455Z,18.78
2019-04-16T16:42:39.172Z,18.75
2019-04-16T16:46:05.387Z,18.74
2019-04-16T16:49:09.438Z,18.81
2019-04-16T16:52:41.720Z,18.66
2019-04-16T16:55:52.795Z,18.52
2019-04-16T16:59:15.660Z,18.64
2019-04-16T17:02:27.896Z,18.46
2019-04-16T17:05:34.169Z,18.40
2019-04-16T17:08:38.069Z,18.36
2019-04-16T17:11:43.229Z,18.37
2019-04-16T17:14:47.675Z,18.46
2019-04-16T17:17:51.604Z,18.32
2019-04-16T17:20:57.117Z,18.27
2019-04-16T17:24:01.132Z,18.34
2019-04-16T17:27:05.347Z,18.32
2019-04-16T17:30:11.287Z,18.24
2019-04-16T17:33:15.871Z,18.12
2019-04-16T17:36:20.584Z,18.10
2019-04-16T17:39:42.245Z,18.05
2019-04-16T17:42:44.978Z,17.95
2019-04-16T17:46:10.997Z,17.95
2019-04-16T17:49:27.324Z,17.91
2019-04-16T17:52:50.287Z,17.95
2019-04-16T17:56:16.232Z,17.84
2019-04-16T17:59:29.067Z,17.71
2019-04-16T18:02:55.292Z,17.63
2019-04-16T18:06:10.593Z,17.62
2019-04-16T18:09:40.384Z,17.56
2019-04-16T18:12:56.453Z,17.51
2019-04-16T18:16:29.878Z,17.58
2019-04-16T18:19:52.190Z,17.52
2019-04-16T18:23:11.384Z,17.50
2019-04-16T18:26:43.904Z,17.47
2019-04-16T18:29:53.801Z,17.42
2019-04-16T18:33:15.868Z,17.41
2019-04-16T18:36:28.616Z,17.34
2019-04-16T18:39:38.342Z,17.30
2019-04-16T18:43:16.459Z,17.20
2019-04-16T18:46:27.006Z,17.15
2019-04-16T18:49:31.094Z,16.79
2019-04-16T18:52:36.634Z,16.72
2019-04-16T18:55:41.003Z,16.50
2019-04-16T18:58:44.890Z,16.24
2019-04-16T19:01:51.208Z,16.24
2019-04-16T19:04:55.570Z,15.94
2019-04-16T19:08:00.835Z,15.72
2019-04-16T19:11:06.722Z,15.72
2019-04-16T19:14:13.182Z,15.55
2019-04-16T19:17:17.092Z,15.42
2019-04-16T19:20:20.987Z,15.22
2019-04-16T19:23:25.250Z,15.04
2019-04-16T19:26:30.302Z,15.07
2019-04-16T19:29:34.709Z,15.10
2019-04-16T19:32:40.044Z,15.14
2019-04-16T19:35:44.189Z,15.19
2019-04-16T19:38:49.963Z,15.21
2019-04-16T19:41:57.219Z,15.15
2019-04-16T19:45:00.605Z,15.04
2019-04-16T19:48:05.115Z,14.82
2019-04-16T19:51:09.438Z,14.55
2019-04-16T19:54:13.337Z,14.58
2019-04-16T19:57:17.546Z,14.67
2019-04-16T20:00:22.992Z,14.64
2019-04-16T20:03:30.196Z,14.71
2019-04-16T20:06:35.239Z,14.58
2019-04-16T20:09:39.457Z,14.60
2019-04-16T20:12:43.327Z,14.59
2019-04-16T20:15:47.447Z,14.65
2019-04-16T20:18:52.504Z,14.76
2019-04-16T20:21:56.450Z,14.71
2019-04-16T20:25:00.420Z,14.63
2019-04-16T20:28:08.677Z,14.54
2019-04-16T20:31:14.043Z,14.56
2019-04-16T20:34:18.272Z,14.56
2019-04-16T20:37:23.477Z,14.52
2019-04-16T20:40:27.918Z,14.56
2019-04-16T20:43:31.931Z,14.42
2019-04-16T20:46:37.286Z,14.40
2019-04-16T20:49:42.009Z,14.30
2019-04-16T20:52:46.155Z,14.30
2019-04-16T20:55:50.012Z,14.30
2019-04-16T20:58:53.978Z,14.21
2019-04-16T21:01:58.339Z,14.31
2019-04-16T21:05:04.511Z,14.24
2019-04-16T21:08:08.895Z,14.21
2019-04-16T21:11:12.801Z,14.24
2019-04-16T21:14:18.918Z,14.25
2019-04-16T21:17:23.097Z,14.25
2019-04-16T21:20:27.086Z,14.22
2019-04-16T21:23:31.859Z,14.17
2019-04-16T21:26:37.153Z,14.08
2019-04-16T21:29:41.339Z,13.94
2019-04-16T21:32:54.455Z,13.95
2019-04-16T21:36:03.473Z,13.88
2019-04-16T21:39:17.165Z,13.81
2019-04-16T21:42:19.572Z,13.80
2019-04-16T21:45:23.660Z,13.82
2019-04-16T21:48:27.965Z,13.75
2019-04-16T21:51:32.023Z,13.67
2019-04-16T21:54:36.065Z,13.63
2019-04-16T21:57:42.897Z,13.63
2019-04-16T22:01:05.124Z,13.60
2019-04-16T22:04:14.463Z,13.53
2019-04-16T22:07:18.762Z,13.53
2019-04-16T22:10:24.326Z,13.57
2019-04-16T22:13:28.589Z,13.43
2019-04-16T22:16:32.414Z,13.40
2019-04-16T22:19:36.444Z,13.26
2019-04-16T22:22:40.337Z,13.25
2019-04-16T22:25:44.973Z,13.20
2019-04-16T22:28:48.934Z,13.27
2019-04-16T22:31:57.124Z,13.35
2019-04-16T22:34:58.523Z,13.47
2019-04-16T22:38:02.715Z,13.52
2019-04-16T22:41:28.430Z,13.52
2019-04-16T22:44:46.696Z,13.52
2019-04-16T22:47:51.454Z,13.51
2019-04-16T22:50:55.578Z,13.55
2019-04-16T22:53:59.554Z,13.60
2019-04-16T22:57:08.796Z,13.59
2019-04-16T23:00:26.736Z,13.59
2019-04-16T23:03:31.222Z,13.50
2019-04-16T23:06:37.670Z,13.53
2019-04-16T23:09:40.708Z,13.51
2019-04-16T23:12:44.918Z,13.45
2019-04-16T23:15:48.856Z,13.40
2019-04-16T23:18:53.427Z,13.37
2019-04-16T23:21:58.243Z,13.39
2019-04-16T23:25:02.227Z,13.39
2019-04-16T23:28:09.476Z,13.35
2019-04-16T23:31:11.617Z,13.30
2019-04-16T23:34:15.608Z,13.28
2019-04-16T23:37:23.019Z,13.25
2019-04-16T23:40:25.965Z,13.23
2019-04-16T23:43:54.928Z,13.24
2019-04-16T23:47:16.853Z,13.23
2019-04-16T23:50:45.035Z,13.20
2019-04-16T23:53:52.400Z,13.15
2019-04-16T23:57:10.903Z,13.13
